createdAt,value
2022-10-02T00:01:44.498Z,110.03774
2022-10-02T00:06:46.144Z,99.94937
2022-10-02T00:11:47.841Z,87.58974
2022-10-02T00:16:49.577Z,77.33333
2022-10-02T00:21:51.260Z,74.50847
2022-10-02T00:26:52.870Z,91.72182
2022-10-02T00:31:54.507Z,83.36652
2022-10-02T00:36:56.185Z,74.78556
2022-10-02T00:41:57.752Z,71.80083
2022-10-02T00:46:59.374Z,80.58537
2022-10-02T00:52:00.975Z,92.07692
2022-10-02T00:57:02.683Z,80.28319
2022-10-02T01:02:04.347Z,78.49782
2022-10-02T01:07:05.992Z,66.22222
2022-10-02T01:12:07.599Z,66.46521
2022-10-02T01:17:09.176Z,72.33333
2022-10-02T01:22:10.853Z,72.33333
2022-10-02T01:27:12.433Z,81.19376
2022-10-02T01:32:14.049Z,93.51456
2022-10-02T01:37:15.650Z,91.01671
2022-10-02T01:42:17.296Z,79.68282
2022-10-02T01:47:18.877Z,84.9611
2022-10-02T01:52:20.526Z,85.6092
2022-10-02T01:57:22.123Z,87.25581
2022-10-02T02:02:23.822Z,81.5
2022-10-02T02:07:25.487Z,71.53623
2022-10-02T02:12:27.112Z,74.50847
2022-10-02T02:17:28.681Z,72.87029
2022-10-02T02:22:30.270Z,67.94366
2022-10-02T02:27:31.846Z,64.3125
2022-10-02T02:32:33.613Z,63.37984
2022-10-02T02:37:35.208Z,65.9802
2022-10-02T02:42:36.795Z,68.94929
2022-10-02T02:47:38.376Z,66.95409
2022-10-02T02:52:39.971Z,64.78431
2022-10-02T02:57:41.569Z,64.3125
2022-10-02T03:02:43.186Z,64.78431
2022-10-02T03:07:44.796Z,65.25984
2022-10-02T03:12:46.509Z,65.73913
2022-10-02T03:17:48.118Z,67.2
2022-10-02T03:22:49.751Z,65.9802
2022-10-02T03:27:51.412Z,64.54795
2022-10-02T03:32:53.086Z,63.37984
2022-10-02T03:37:54.678Z,62.91892
2022-10-02T03:42:56.339Z,64.54795
2022-10-02T03:47:58.010Z,63.14894
2022-10-02T03:52:59.655Z,63.37984
2022-10-02T03:58:01.420Z,64.3125
2022-10-02T04:03:03.027Z,67.2
2022-10-02T04:08:04.636Z,65.25984
2022-10-02T04:13:06.329Z,64.54795
2022-10-02T04:18:07.918Z,64.54795
2022-10-02T04:23:09.510Z,64.54795
2022-10-02T04:28:11.183Z,64.54795
2022-10-02T04:33:12.784Z,63.84436
2022-10-02T04:38:14.384Z,63.84436
2022-10-02T04:43:15.968Z,66.22222
2022-10-02T04:48:17.567Z,65.02161
2022-10-02T04:53:19.150Z,64.54795
2022-10-02T04:58:20.766Z,64.54795
2022-10-02T05:03:22.375Z,67.69478
2022-10-02T05:08:23.986Z,70.48871
2022-10-02T05:13:25.619Z,68.44444
2022-10-02T05:18:27.253Z,66.95409
2022-10-02T05:23:28.881Z,66.46521
2022-10-02T05:28:30.604Z,65.73913
2022-10-02T05:33:32.227Z,65.02161
2022-10-02T05:38:33.793Z,66.46521
2022-10-02T05:43:35.415Z,65.9802
2022-10-02T05:48:37.023Z,65.49901
2022-10-02T05:53:38.653Z,65.49901
2022-10-02T05:58:40.228Z,65.73913
2022-10-02T06:03:41.838Z,64.78431
2022-10-02T06:08:43.473Z,64.78431
2022-10-02T06:13:45.084Z,68.44444
2022-10-02T06:18:46.728Z,70.74897
2022-10-02T06:23:48.383Z,68.69636
2022-10-02T06:28:50.020Z,66.95409
2022-10-02T06:33:51.591Z,67.44689
2022-10-02T06:38:53.189Z,67.44689
2022-10-02T06:43:54.777Z,65.73913
2022-10-02T06:48:56.375Z,70.48871
2022-10-02T06:53:57.942Z,72.87029
2022-10-02T06:58:59.606Z,68.94929
2022-10-02T07:04:01.281Z,69.97137
2022-10-02T07:09:02.855Z,73.95781
2022-10-02T07:14:04.499Z,75.62393
2022-10-02T07:19:06.100Z,71.53623
2022-10-02T07:24:07.692Z,70.48871
2022-10-02T07:29:09.280Z,70.74897
2022-10-02T07:34:10.939Z,72.87029
2022-10-02T07:39:12.525Z,70.22951
2022-10-02T07:44:14.116Z,71.80083
2022-10-02T07:49:15.711Z,72.33333
2022-10-02T07:54:17.333Z,71.80083
2022-10-02T07:59:18.921Z,69.97137
2022-10-02T08:04:20.533Z,69.71429
2022-10-02T08:09:22.164Z,69.45825
2022-10-02T08:14:23.768Z,71.01031
2022-10-02T08:19:25.369Z,69.97137
2022-10-02T08:24:26.984Z,69.71429
2022-10-02T08:29:28.573Z,70.48871
2022-10-02T08:34:30.174Z,70.48871
2022-10-02T08:39:31.773Z,72.87029
2022-10-02T08:44:36.306Z,71.27273
2022-10-02T08:49:38.299Z,70.22951
2022-10-02T08:54:39.896Z,71.80083
2022-10-02T08:59:41.496Z,70.48871
2022-10-02T09:04:43.085Z,72.60125
2022-10-02T09:09:44.660Z,71.27273
2022-10-02T09:14:46.260Z,71.01031
2022-10-02T09:19:47.932Z,74.50847
2022-10-02T09:24:49.525Z,78.49782
2022-10-02T09:29:51.123Z,74.23256
2022-10-02T09:34:52.737Z,71.27273
2022-10-02T09:39:54.305Z,69.45825
2022-10-02T09:45:00.350Z,69.20325
2022-10-02T09:50:03.123Z,69.71429
2022-10-02T09:55:04.798Z,69.45825
2022-10-02T10:00:06.391Z,67.69478
2022-10-02T10:05:08.015Z,68.69636
2022-10-02T10:10:09.624Z,67.69478
2022-10-02T10:15:11.208Z,66.95409
2022-10-02T10:20:12.886Z,66.22222
2022-10-02T10:25:14.699Z,66.95409
2022-10-02T10:30:16.349Z,66.22222
2022-10-02T10:35:17.925Z,65.73913
2022-10-02T10:40:19.518Z,65.49901
2022-10-02T10:45:21.121Z,65.49901
2022-10-02T10:50:22.736Z,65.9802
2022-10-02T10:55:24.412Z,65.9802
2022-10-02T11:00:26.049Z,67.69478
2022-10-02T11:05:27.739Z,74.23256
2022-10-02T11:10:29.368Z,82.11659
2022-10-02T11:15:31.003Z,79.98234
2022-10-02T11:20:32.650Z,73.41176
2022-10-02T11:25:34.262Z,72.06653
2022-10-02T11:30:39.503Z,70.48871
2022-10-02T11:35:43.182Z,68.44444
2022-10-02T11:40:44.757Z,67.2
2022-10-02T11:45:46.463Z,65.49901
2022-10-02T11:50:48.060Z,65.02161
2022-10-02T11:55:49.664Z,66.22222
2022-10-02T12:00:51.269Z,65.73913
2022-10-02T12:05:52.847Z,66.22222
2022-10-02T12:10:54.532Z,66.70916
2022-10-02T12:15:56.232Z,66.22222
2022-10-02T12:20:57.843Z,66.95409
2022-10-02T12:25:59.445Z,66.70916
2022-10-02T12:31:01.047Z,66.70916
2022-10-02T12:36:02.661Z,66.46521
2022-10-02T12:41:04.371Z,66.22222
2022-10-02T12:46:06.006Z,66.22222
2022-10-02T12:51:07.672Z,66.46521
2022-10-02T12:56:09.328Z,66.46521
2022-10-02T13:01:10.960Z,66.70916
2022-10-02T13:06:12.635Z,66.95409
2022-10-02T13:11:14.253Z,67.2
2022-10-02T13:16:15.874Z,66.95409
2022-10-02T13:21:17.532Z,66.70916
2022-10-02T13:26:19.414Z,66.95409
2022-10-02T13:31:21.096Z,66.95409
2022-10-02T13:36:22.938Z,67.2
2022-10-02T13:41:24.705Z,67.44689
2022-10-02T13:46:26.298Z,67.44689
2022-10-02T13:51:27.938Z,68.19355
2022-10-02T13:56:29.528Z,68.69636
2022-10-02T14:01:31.249Z,68.94929
2022-10-02T14:06:32.878Z,68.44444
2022-10-02T14:11:34.831Z,68.44444
2022-10-02T14:16:36.765Z,73.41176
2022-10-02T14:21:38.995Z,72.87029
2022-10-02T14:26:40.917Z,73.14046
2022-10-02T14:31:42.604Z,77.04536
2022-10-02T14:36:44.279Z,78.49782
2022-10-02T14:41:49.126Z,77.62256
2022-10-02T14:46:51.057Z,78.79212
2022-10-02T14:51:52.666Z,81.19376
2022-10-02T14:56:54.301Z,79.68282
2022-10-02T15:01:55.917Z,88.94118
2022-10-02T15:06:57.544Z,96.09877
2022-10-02T15:11:59.424Z,96.09877
2022-10-02T15:17:01.246Z,94.98039
2022-10-02T15:22:02.861Z,90.66667
2022-10-02T15:27:04.490Z,91.72182
2022-10-02T15:32:06.058Z,83.68254
2022-10-02T15:37:07.663Z,86.26328
2022-10-02T15:42:09.242Z,85.93548
2022-10-02T15:47:10.809Z,85.2844
2022-10-02T15:52:12.367Z,88.2623
2022-10-02T15:57:13.985Z,89.28302
2022-10-02T16:02:15.663Z,86.26328
2022-10-02T16:07:17.417Z,88.94118
2022-10-02T16:12:19.022Z,96.47525
2022-10-02T16:17:20.634Z,97.61596
2022-10-02T16:22:22.244Z,92.79227
2022-10-02T16:27:23.827Z,87.25581
2022-10-02T16:32:25.422Z,83.36652
2022-10-02T16:37:27.025Z,86.59259
2022-10-02T16:42:28.644Z,88.60094
2022-10-02T16:47:30.253Z,103.58549
2022-10-02T16:52:31.895Z,106.53298
2022-10-02T16:57:33.523Z,93.15254
2022-10-02T17:02:35.175Z,100.34518
2022-10-02T17:07:36.892Z,96.47525
2022-10-02T17:12:38.597Z,96.8536
2022-10-02T17:17:40.260Z,99.16373
2022-10-02T17:22:41.850Z,101.14286
2022-10-02T17:27:43.500Z,95.72414
2022-10-02T17:32:45.081Z,95.35135
2022-10-02T17:37:46.672Z,101.14286
2022-10-02T17:42:48.275Z,97.61596
2022-10-02T17:47:49.942Z,99.16373
2022-10-02T17:52:51.518Z,104
2022-10-02T17:57:53.117Z,105.67979
2022-10-02T18:02:54.687Z,115.58774
2022-10-02T18:07:56.275Z,116.54902
2022-10-02T18:12:57.864Z,144.65147
2022-10-02T18:17:59.509Z,126.78932
2022-10-02T18:23:01.134Z,131.23404
2022-10-02T18:28:02.763Z,122.03468
2022-10-02T18:33:04.413Z,128.98498
2022-10-02T18:38:05.994Z,132.3792
2022-10-02T18:43:07.731Z,133.53846
2022-10-02T18:48:09.357Z,135.30435
2022-10-02T18:53:11.041Z,144
2022-10-02T18:58:12.694Z,136.5
2022-10-02T19:03:14.329Z,137.10345
2022-10-02T19:08:15.937Z,142.70968
2022-10-02T19:13:18.487Z,157.14879
2022-10-02T19:18:20.211Z,180.01533
2022-10-02T19:23:21.794Z,144
2022-10-02T19:28:23.476Z,147.97351
2022-10-02T19:33:25.108Z,145.96721
2022-10-02T19:38:26.743Z,141.4359
2022-10-02T19:43:28.364Z,154.23891
2022-10-02T19:48:29.986Z,160.90141
2022-10-02T19:53:31.709Z,164.78853
2022-10-02T19:58:33.342Z,207.24786
2022-10-02T20:03:35.041Z,214.17544
2022-10-02T20:08:36.719Z,210.66667
2022-10-02T20:13:38.312Z,200.66667
2022-10-02T20:18:39.933Z,231.85047
2022-10-02T20:23:41.545Z,233.20188
2022-10-02T20:28:43.129Z,201.74059
2022-10-02T20:33:44.737Z,210.66667
2022-10-02T20:38:46.364Z,248.9505
2022-10-02T20:43:50.341Z,225.27854
2022-10-02T20:49:06.936Z,180.92308
2022-10-02T20:54:09.615Z,173.85075
2022-10-02T20:59:11.221Z,211.82609
2022-10-02T21:04:12.907Z,206.12766
2022-10-02T21:09:14.532Z,229.18519
2022-10-02T21:14:16.207Z,215.36564
2022-10-02T21:19:17.834Z,219
2022-10-02T21:24:19.430Z,210.66667
2022-10-02T21:29:21.042Z,201.74059
2022-10-02T21:34:22.667Z,211.82609
2022-10-02T21:39:24.317Z,190.4
2022-10-02T21:44:25.909Z,152.81356
2022-10-02T21:49:27.507Z,263.17098
2022-10-02T21:54:29.106Z,196.45902
2022-10-02T21:59:30.734Z,186.51969
2022-10-02T22:04:32.326Z,148.65116
2022-10-02T22:09:33.963Z,176.45283
2022-10-02T22:14:35.607Z,154.9589
2022-10-02T22:19:37.210Z,160.14035
2022-10-02T22:24:38.924Z,190.4
2022-10-02T22:29:40.565Z,164
2022-10-02T22:34:42.179Z,198.54545
2022-10-02T22:39:43.763Z,199.60166
2022-10-02T22:44:45.347Z,182.75969
2022-10-02T22:49:47.003Z,226.56881
2022-10-02T22:54:48.645Z,202.82353
2022-10-02T22:59:50.243Z,183.68872
2022-10-02T23:04:51.926Z,150.02007
2022-10-02T23:09:53.505Z,177.33333
2022-10-02T23:14:55.092Z,154.23891
2022-10-02T23:19:57.309Z,152.10811
2022-10-02T23:24:58.922Z,147.30033
2022-10-02T23:30:00.500Z,122.03468
2022-10-02T23:35:02.076Z,94.61125
2022-10-02T23:40:03.681Z,169.64103
2022-10-02T23:45:05.315Z,147.30033
2022-10-02T23:50:06.898Z,149.33333
2022-10-02T23:55:08.489Z,101.54476
